Colliers, Canada
Current Conditions -  °F | °C
As of 4:48 AM on Wednesday 26 Nov 2014 (Local Time) from CYYT Reporting Station
Few Clouds Few Clouds  
Wind Chill: 35°   Ceiling: Unl
Heat Index: 45°   Visibility: 15mi
Dew Point: 45°   Wind: 29mph
Humidity: 100%   Direction: 270°W
Pressure: 29.73"   Gusts: 38mph
Location:  47.45°N, 53.23°W
Report Text: CYYT 260748Z 27025G33KT 15SM FEW006 07/07 A2973 RMK SF1 SLP069
Loading
Personal Weather Stations






























Interactive Weather Map New forecast layout! Learn more

10-Day Weather Forecast

Advertisements
Track Severe Weather on mobile